sensor_id;sensor_type;location;lat;lon;timestamp;pressure;altitude;pressure_sealevel;temperature;humidity
7802;BME280;3945;48.952;9.506;2023-05-23T00:01:19;97729.91;;;16.74;90.11
7802;BME280;3945;48.952;9.506;2023-05-23T00:03:46;97731.28;;;16.71;90.50
7802;BME280;3945;48.952;9.506;2023-05-23T00:06:13;97732.72;;;16.59;91.15
7802;BME280;3945;48.952;9.506;2023-05-23T00:08:39;97732.88;;;16.44;91.96
7802;BME280;3945;48.952;9.506;2023-05-23T00:11:07;97741.50;;;16.40;91.64
7802;BME280;3945;48.952;9.506;2023-05-23T00:13:34;97743.41;;;16.40;91.89
7802;BME280;3945;48.952;9.506;2023-05-23T00:16:00;97738.84;;;16.35;92.21
7802;BME280;3945;48.952;9.506;2023-05-23T00:18:27;97736.47;;;16.34;92.36
7802;BME280;3945;48.952;9.506;2023-05-23T00:20:54;97738.09;;;16.30;92.81
7802;BME280;3945;48.952;9.506;2023-05-23T00:23:21;97745.34;;;16.29;92.54
7802;BME280;3945;48.952;9.506;2023-05-23T00:25:49;97743.19;;;16.31;92.71
7802;BME280;3945;48.952;9.506;2023-05-23T00:28:18;97738.63;;;16.32;92.50
7802;BME280;3945;48.952;9.506;2023-05-23T00:30:44;97742.13;;;16.32;92.70
7802;BME280;3945;48.952;9.506;2023-05-23T00:33:11;97739.44;;;16.32;92.50
7802;BME280;3945;48.952;9.506;2023-05-23T00:35:38;97745.34;;;16.29;92.67
7802;BME280;3945;48.952;9.506;2023-05-23T00:38:04;97739.22;;;16.24;92.57
7802;BME280;3945;48.952;9.506;2023-05-23T00:40:31;97743.84;;;16.18;92.64
7802;BME280;3945;48.952;9.506;2023-05-23T00:42:58;97746.84;;;16.12;92.64
7802;BME280;3945;48.952;9.506;2023-05-23T00:45:26;97752.03;;;16.03;92.95
7802;BME280;3945;48.952;9.506;2023-05-23T00:47:52;97744.28;;;15.96;93.38
7802;BME280;3945;48.952;9.506;2023-05-23T00:50:19;97742.72;;;15.90;93.96
7802;BME280;3945;48.952;9.506;2023-05-23T00:52:46;97745.41;;;15.85;94.38
7802;BME280;3945;48.952;9.506;2023-05-23T00:55:13;97745.41;;;15.85;94.96
7802;BME280;3945;48.952;9.506;2023-05-23T00:57:40;97744.34;;;15.86;94.95
7802;BME280;3945;48.952;9.506;2023-05-23T01:00:08;97744.06;;;15.88;95.32
7802;BME280;3945;48.952;9.506;2023-05-23T01:02:37;97750.50;;;15.92;95.15
7802;BME280;3945;48.952;9.506;2023-05-23T01:05:07;97752.06;;;15.93;95.10
7802;BME280;3945;48.952;9.506;2023-05-23T01:07:34;97759.38;;;15.87;94.58
7802;BME280;3945;48.952;9.506;2023-05-23T01:10:00;97762.63;;;15.84;94.83
7802;BME280;3945;48.952;9.506;2023-05-23T01:12:28;97754.09;;;15.77;94.50
7802;BME280;3945;48.952;9.506;2023-05-23T01:15:05;97763.78;;;15.68;94.75
7802;BME280;3945;48.952;9.506;2023-05-23T01:17:33;97772.38;;;15.65;95.00
7802;BME280;3945;48.952;9.506;2023-05-23T01:20:08;97763.03;;;15.63;95.21
7802;BME280;3945;48.952;9.506;2023-05-23T01:25:23;97766.22;;;15.65;95.57
7802;BME280;3945;48.952;9.506;2023-05-23T01:27:54;97763.53;;;15.70;95.47
7802;BME280;3945;48.952;9.506;2023-05-23T01:30:22;97766.16;;;15.75;96.24
7802;BME280;3945;48.952;9.506;2023-05-23T01:32:50;97762.41;;;15.76;96.28
7802;BME280;3945;48.952;9.506;2023-05-23T01:35:21;97766.69;;;15.77;96.42
7802;BME280;3945;48.952;9.506;2023-05-23T01:37:49;97767.50;;;15.77;96.40
7802;BME280;3945;48.952;9.506;2023-05-23T01:40:16;97762.13;;;15.77;96.49
7802;BME280;3945;48.952;9.506;2023-05-23T01:42:42;97760.28;;;15.73;96.47
7802;BME280;3945;48.952;9.506;2023-05-23T01:45:10;97759.47;;;15.72;96.71
7802;BME280;3945;48.952;9.506;2023-05-23T01:47:37;97763.75;;;15.73;97.14
7802;BME280;3945;48.952;9.506;2023-05-23T01:50:05;97765.09;;;15.76;97.17
7802;BME280;3945;48.952;9.506;2023-05-23T01:52:33;97771.22;;;15.81;97.65
7802;BME280;3945;48.952;9.506;2023-05-23T01:55:00;97762.63;;;15.84;97.94
7802;BME280;3945;48.952;9.506;2023-05-23T01:57:27;97770.38;;;15.91;98.33
7802;BME280;3945;48.952;9.506;2023-05-23T01:59:54;97764.41;;;15.94;98.54
7802;BME280;3945;48.952;9.506;2023-05-23T02:02:22;97764.69;;;15.97;98.74
7802;BME280;3945;48.952;9.506;2023-05-23T02:04:48;97763.56;;;16.04;98.85
7802;BME280;3945;48.952;9.506;2023-05-23T02:07:15;97765.41;;;16.08;99.11
7802;BME280;3945;48.952;9.506;2023-05-23T02:09:41;97770.75;;;16.13;99.59
7802;BME280;3945;48.952;9.506;2023-05-23T02:12:08;97761.84;;;16.18;99.46
7802;BME280;3945;48.952;9.506;2023-05-23T02:14:35;97766.66;;;16.21;99.29
7802;BME280;3945;48.952;9.506;2023-05-23T02:17:03;97770.38;;;16.25;98.88
7802;BME280;3945;48.952;9.506;2023-05-23T02:19:31;97770.91;;;16.27;98.75
7802;BME280;3945;48.952;9.506;2023-05-23T02:21:58;97771.41;;;16.29;98.88
7802;BME280;3945;48.952;9.506;2023-05-23T02:24:24;97767.09;;;16.33;98.47
7802;BME280;3945;48.952;9.506;2023-05-23T02:26:51;97771.34;;;16.39;98.44
7802;BME280;3945;48.952;9.506;2023-05-23T02:29:18;97778.84;;;16.42;98.80
7802;BME280;3945;48.952;9.506;2023-05-23T02:31:44;97780.66;;;16.47;99.28
7802;BME280;3945;48.952;9.506;2023-05-23T02:34:10;97773.63;;;16.51;100.00
7802;BME280;3945;48.952;9.506;2023-05-23T02:36:38;97779.53;;;16.53;100.00
7802;BME280;3945;48.952;9.506;2023-05-23T02:39:05;97782.75;;;16.55;100.00
7802;BME280;3945;48.952;9.506;2023-05-23T02:41:31;97777.09;;;16.56;100.00
7802;BME280;3945;48.952;9.506;2023-05-23T02:43:57;97786.47;;;16.59;100.00
7802;BME280;3945;48.952;9.506;2023-05-23T02:46:24;97782.69;;;16.60;100.00
7802;BME280;3945;48.952;9.506;2023-05-23T02:48:50;97782.97;;;16.58;100.00
7802;BME280;3945;48.952;9.506;2023-05-23T02:51:17;97781.66;;;16.61;100.00
7802;BME280;3945;48.952;9.506;2023-05-23T02:53:44;97788.34;;;16.63;100.00
7802;BME280;3945;48.952;9.506;2023-05-23T02:56:11;97789.94;;;16.64;100.00
7802;BME280;3945;48.952;9.506;2023-05-23T02:58:37;97792.91;;;16.63;100.00
7802;BME280;3945;48.952;9.506;2023-05-23T03:01:04;97787.53;;;16.63;100.00
7802;BME280;3945;48.952;9.506;2023-05-23T03:03:32;97788.34;;;16.63;100.00
7802;BME280;3945;48.952;9.506;2023-05-23T03:05:58;97787.03;;;16.61;99.88
7802;BME280;3945;48.952;9.506;2023-05-23T03:08:25;97785.38;;;16.60;99.71
7802;BME280;3945;48.952;9.506;2023-05-23T03:10:52;97795.06;;;16.61;99.72
7802;BME280;3945;48.952;9.506;2023-05-23T03:13:19;97792.13;;;16.62;99.75
7802;BME280;3945;48.952;9.506;2023-05-23T03:15:45;97788.34;;;16.63;99.95
7802;BME280;3945;48.952;9.506;2023-05-23T03:18:11;97792.91;;;16.63;99.81
7802;BME280;3945;48.952;9.506;2023-05-23T03:20:38;97795.31;;;16.64;99.87
7802;BME280;3945;48.952;9.506;2023-05-23T03:23:04;97799.03;;;16.68;100.00
7802;BME280;3945;48.952;9.506;2023-05-23T03:25:30;97806.50;;;16.76;100.00
7802;BME280;3945;48.952;9.506;2023-05-23T03:27:58;97793.88;;;16.77;100.00
7802;BME280;3945;48.952;9.506;2023-05-23T03:30:25;97797.28;;;16.83;100.00
7802;BME280;3945;48.952;9.506;2023-05-23T03:32:51;97796.44;;;16.87;100.00
7802;BME280;3945;48.952;9.506;2023-05-23T03:35:18;97794.78;;;16.91;100.00
7802;BME280;3945;48.952;9.506;2023-05-23T03:37:45;97795.06;;;16.90;100.00
7802;BME280;3945;48.952;9.506;2023-05-23T03:40:11;97802.34;;;16.89;100.00
7802;BME280;3945;48.952;9.506;2023-05-23T03:42:37;97810.41;;;16.89;100.00
7802;BME280;3945;48.952;9.506;2023-05-23T03:45:06;97809.84;;;16.92;100.00
7802;BME280;3945;48.952;9.506;2023-05-23T03:47:32;97798.50;;;16.95;100.00
7802;BME280;3945;48.952;9.506;2023-05-23T03:49:58;97805.22;;;16.98;100.00
7802;BME280;3945;48.952;9.506;2023-05-23T03:52:25;97799.03;;;16.97;100.00
7802;BME280;3945;48.952;9.506;2023-05-23T03:54:51;97798.75;;;16.99;100.00
7802;BME280;3945;48.952;9.506;2023-05-23T03:57:17;97794.19;;;16.99;100.00
7802;BME280;3945;48.952;9.506;2023-05-23T03:59:44;97801.94;;;17.01;100.00
7802;BME280;3945;48.952;9.506;2023-05-23T04:02:11;97804.63;;;17.01;100.00
7802;BME280;3945;48.952;9.506;2023-05-23T04:04:38;97801.13;;;17.00;100.00
7802;BME280;3945;48.952;9.506;2023-05-23T04:07:05;97799.25;;;17.01;100.00
7802;BME280;3945;48.952;9.506;2023-05-23T04:09:33;97808.13;;;17.01;100.00
7802;BME280;3945;48.952;9.506;2023-05-23T04:11:59;97808.63;;;17.03;100.00
7802;BME280;3945;48.952;9.506;2023-05-23T04:14:25;97809.16;;;17.05;100.00
7802;BME280;3945;48.952;9.506;2023-05-23T04:16:52;97820.13;;;17.09;100.00
7802;BME280;3945;48.952;9.506;2023-05-23T04:19:20;97823.34;;;17.11;100.00
7802;BME280;3945;48.952;9.506;2023-05-23T04:21:46;97819.56;;;17.12;100.00
7802;BME280;3945;48.952;9.506;2023-05-23T04:24:12;97823.88;;;17.13;100.00
7802;BME280;3945;48.952;9.506;2023-05-23T04:26:39;97829.25;;;17.13;100.00
7802;BME280;3945;48.952;9.506;2023-05-23T04:29:06;97819.50;;;17.17;100.00
7802;BME280;3945;48.952;9.506;2023-05-23T04:31:33;97813.84;;;17.18;100.00
7802;BME280;3945;48.952;9.506;2023-05-23T04:33:59;97815.19;;;17.21;100.00
7802;BME280;3945;48.952;9.506;2023-05-23T04:36:27;97820.25;;;17.23;100.00
7802;BME280;3945;48.952;9.506;2023-05-23T04:38:54;97828.03;;;17.24;100.00
7802;BME280;3945;48.952;9.506;2023-05-23T04:41:20;97824.78;;;17.27;100.00
7802;BME280;3945;48.952;9.506;2023-05-23T04:43:47;97827.97;;;17.29;100.00
7802;BME280;3945;48.952;9.506;2023-05-23T04:46:18;97829.59;;;17.30;100.00
7802;BME280;3945;48.952;9.506;2023-05-23T04:48:47;97832.78;;;17.32;100.00
7802;BME280;3945;48.952;9.506;2023-05-23T04:51:14;97832.00;;;17.32;100.00
7802;BME280;3945;48.952;9.506;2023-05-23T04:53:42;97824.44;;;17.34;100.00
7802;BME280;3945;48.952;9.506;2023-05-23T04:56:08;97832.44;;;17.39;100.00
7802;BME280;3945;48.952;9.506;2023-05-23T04:58:35;97831.88;;;17.42;99.39
7802;BME280;3945;48.952;9.506;2023-05-23T05:01:01;97837.47;;;17.45;99.18
7802;BME280;3945;48.952;9.506;2023-05-23T05:03:27;97840.69;;;17.47;99.10
7802;BME280;3945;48.952;9.506;2023-05-23T05:05:54;97842.03;;;17.50;99.34
7802;BME280;3945;48.952;9.506;2023-05-23T05:08:21;97844.13;;;17.53;99.11
7802;BME280;3945;48.952;9.506;2023-05-23T05:10:48;97840.59;;;17.58;99.05
7802;BME280;3945;48.952;9.506;2023-05-23T05:13:15;97839.16;;;17.65;98.96
7802;BME280;3945;48.952;9.506;2023-05-23T05:15:42;97843.97;;;17.68;98.13
7802;BME280;3945;48.952;9.506;2023-05-23T05:18:08;97842.88;;;17.69;98.44
7802;BME280;3945;48.952;9.506;2023-05-23T05:20:36;97843.91;;;17.73;98.30
7802;BME280;3945;48.952;9.506;2023-05-23T05:23:02;97850.31;;;17.77;97.86
7802;BME280;3945;48.952;9.506;2023-05-23T05:25:28;97848.13;;;17.79;97.77
7802;BME280;3945;48.952;9.506;2023-05-23T05:27:59;97848.91;;;17.80;97.64
7802;BME280;3945;48.952;9.506;2023-05-23T05:30:30;97842.44;;;17.81;97.64
7802;BME280;3945;48.952;9.506;2023-05-23T05:32:57;97849.16;;;17.83;98.21
7802;BME280;3945;48.952;9.506;2023-05-23T05:35:26;97849.09;;;17.88;97.52
7802;BME280;3945;48.952;9.506;2023-05-23T05:37:52;97848.50;;;17.91;97.55
7802;BME280;3945;48.952;9.506;2023-05-23T05:40:18;97844.41;;;17.94;97.18
7802;BME280;3945;48.952;9.506;2023-05-23T05:42:45;97846.25;;;17.99;96.81
7802;BME280;3945;48.952;9.506;2023-05-23T05:45:12;97849.25;;;17.97;96.81
7802;BME280;3945;48.952;9.506;2023-05-23T05:47:39;97851.13;;;17.97;97.12
7802;BME280;3945;48.952;9.506;2023-05-23T05:50:06;97845.47;;;17.98;97.43
7802;BME280;3945;48.952;9.506;2023-05-23T05:52:33;97849.97;;;18.03;97.32
7802;BME280;3945;48.952;9.506;2023-05-23T05:55:03;97855.06;;;18.04;97.30
7802;BME280;3945;48.952;9.506;2023-05-23T05:57:30;97856.97;;;18.04;97.42
7802;BME280;3945;48.952;9.506;2023-05-23T05:59:57;97848.06;;;18.03;97.49
7802;BME280;3945;48.952;9.506;2023-05-23T06:02:24;97851.28;;;18.05;96.99
7802;BME280;3945;48.952;9.506;2023-05-23T06:04:51;97854.19;;;18.09;97.00
7802;BME280;3945;48.952;9.506;2023-05-23T06:07:17;97854.69;;;18.11;96.69
7802;BME280;3945;48.952;9.506;2023-05-23T06:09:44;97849.84;;;18.13;96.55
7802;BME280;3945;48.952;9.506;2023-05-23T06:12:10;97855.16;;;18.18;96.56
7802;BME280;3945;48.952;9.506;2023-05-23T06:14:36;97856.47;;;18.20;96.34
7802;BME280;3945;48.952;9.506;2023-05-23T06:17:03;97865.34;;;18.21;95.22
7802;BME280;3945;48.952;9.506;2023-05-23T06:19:30;97871.22;;;18.23;95.54
7802;BME280;3945;48.952;9.506;2023-05-23T06:21:57;97860.44;;;18.23;95.36
7802;BME280;3945;48.952;9.506;2023-05-23T06:24:24;97860.97;;;18.25;95.52
7802;BME280;3945;48.952;9.506;2023-05-23T06:26:50;97866.59;;;18.28;95.29
7802;BME280;3945;48.952;9.506;2023-05-23T06:29:16;97861.41;;;18.32;94.71
7802;BME280;3945;48.952;9.506;2023-05-23T06:31:43;97872.41;;;18.36;94.60
7802;BME280;3945;48.952;9.506;2023-05-23T06:34:09;97871.00;;;18.38;94.38
7802;BME280;3945;48.952;9.506;2023-05-23T06:36:37;97882.59;;;18.39;94.37
7802;BME280;3945;48.952;9.506;2023-05-23T06:39:03;97885.22;;;18.44;93.82
7802;BME280;3945;48.952;9.506;2023-05-23T06:41:29;97888.69;;;18.44;93.54
7802;BME280;3945;48.952;9.506;2023-05-23T06:43:56;97890.63;;;18.44;93.92
7802;BME280;3945;48.952;9.506;2023-05-23T06:46:22;97896.78;;;18.44;93.37
7802;BME280;3945;48.952;9.506;2023-05-23T06:48:49;97884.72;;;18.42;93.17
7802;BME280;3945;48.952;9.506;2023-05-23T06:51:15;97897.16;;;18.38;93.18
7802;BME280;3945;48.952;9.506;2023-05-23T06:53:43;97899.28;;;18.41;93.11
7802;BME280;3945;48.952;9.506;2023-05-23T06:56:09;97897.38;;;18.41;92.17
7802;BME280;3945;48.952;9.506;2023-05-23T06:58:36;97891.47;;;18.39;92.49
7802;BME280;3945;48.952;9.506;2023-05-23T07:01:02;97896.78;;;18.44;92.71
7802;BME280;3945;48.952;9.506;2023-05-23T07:03:28;97898.69;;;18.44;92.17
7802;BME280;3945;48.952;9.506;2023-05-23T07:05:55;97898.75;;;18.39;91.93
7802;BME280;3945;48.952;9.506;2023-05-23T07:08:21;97899.03;;;18.37;92.26
7802;BME280;3945;48.952;9.506;2023-05-23T07:10:49;97898.84;;;18.33;92.24
7802;BME280;3945;48.952;9.506;2023-05-23T07:13:15;97909.63;;;18.33;92.50
7802;BME280;3945;48.952;9.506;2023-05-23T07:15:42;97911.22;;;18.34;92.92
7802;BME280;3945;48.952;9.506;2023-05-23T07:18:08;97909.81;;;18.37;92.65
7802;BME280;3945;48.952;9.506;2023-05-23T07:20:35;97918.41;;;18.39;92.41
7802;BME280;3945;48.952;9.506;2023-05-23T07:23:01;97915.53;;;18.36;91.94
7802;BME280;3945;48.952;9.506;2023-05-23T07:25:28;97919.38;;;18.29;91.96
7802;BME280;3945;48.952;9.506;2023-05-23T07:27:55;97925.34;;;18.26;92.23
7802;BME280;3945;48.952;9.506;2023-05-23T07:30:22;97915.94;;;18.24;92.69
7802;BME280;3945;48.952;9.506;2023-05-23T07:32:48;97915.13;;;18.23;92.93
7802;BME280;3945;48.952;9.506;2023-05-23T07:35:16;97910.84;;;18.22;91.33
7802;BME280;3945;48.952;9.506;2023-05-23T07:37:42;97916.16;;;18.27;91.50
7802;BME280;3945;48.952;9.506;2023-05-23T07:40:09;97913.09;;;18.34;91.11
7802;BME280;3945;48.952;9.506;2023-05-23T07:42:35;97912.03;;;18.35;90.82
7802;BME280;3945;48.952;9.506;2023-05-23T07:45:03;97920.75;;;18.46;90.07
7802;BME280;3945;48.952;9.506;2023-05-23T07:47:30;97915.78;;;18.53;89.78
7802;BME280;3945;48.952;9.506;2023-05-23T07:49:56;97918.66;;;18.61;90.03
7802;BME280;3945;48.952;9.506;2023-05-23T07:52:23;97913.94;;;18.72;90.05
7802;BME280;3945;48.952;9.506;2023-05-23T07:54:49;97916.16;;;18.84;89.50
7802;BME280;3945;48.952;9.506;2023-05-23T07:57:15;97916.59;;;18.91;88.21
7802;BME280;3945;48.952;9.506;2023-05-23T07:59:42;97916.81;;;18.94;87.37
7802;BME280;3945;48.952;9.506;2023-05-23T08:02:10;97921.59;;;18.97;87.59
7802;BME280;3945;48.952;9.506;2023-05-23T08:04:36;97924.72;;;19.04;86.25
7802;BME280;3945;48.952;9.506;2023-05-23T08:07:04;97926.22;;;19.10;86.48
7802;BME280;3945;48.952;9.506;2023-05-23T08:09:32;97928.78;;;19.21;87.23
7802;BME280;3945;48.952;9.506;2023-05-23T08:11:58;97924.69;;;19.23;85.78
7802;BME280;3945;48.952;9.506;2023-05-23T08:14:25;97932.38;;;19.30;85.46
7802;BME280;3945;48.952;9.506;2023-05-23T08:16:51;97933.69;;;19.32;83.10
7802;BME280;3945;48.952;9.506;2023-05-23T08:19:19;97936.88;;;19.34;83.27
7802;BME280;3945;48.952;9.506;2023-05-23T08:21:45;97931.69;;;19.38;83.04
7802;BME280;3945;48.952;9.506;2023-05-23T08:24:11;97945.31;;;19.46;83.57
7802;BME280;3945;48.952;9.506;2023-05-23T08:26:38;97944.88;;;19.39;82.82
7802;BME280;3945;48.952;9.506;2023-05-23T08:29:04;97947.94;;;19.19;82.85
7802;BME280;3945;48.952;9.506;2023-05-23T08:31:31;97954.69;;;19.03;82.66
7802;BME280;3945;48.952;9.506;2023-05-23T08:33:57;97956.84;;;18.87;84.29
7802;BME280;3945;48.952;9.506;2023-05-23T08:36:25;97954.06;;;18.73;83.28
7802;BME280;3945;48.952;9.506;2023-05-23T08:38:51;97966.38;;;18.61;84.40
7802;BME280;3945;48.952;9.506;2023-05-23T08:41:19;97959.97;;;18.57;85.02
7802;BME280;3945;48.952;9.506;2023-05-23T08:43:45;97963.06;;;18.45;84.80
7802;BME280;3945;48.952;9.506;2023-05-23T08:46:12;97961.53;;;18.39;85.20
7802;BME280;3945;48.952;9.506;2023-05-23T08:48:38;97962.94;;;18.37;85.39
7802;BME280;3945;48.952;9.506;2023-05-23T08:51:05;97973.19;;;18.34;85.24
7802;BME280;3945;48.952;9.506;2023-05-23T08:53:33;97964.03;;;18.36;85.46
7802;BME280;3945;48.952;9.506;2023-05-23T08:56:01;97968.25;;;18.42;85.67
7802;BME280;3945;48.952;9.506;2023-05-23T08:58:28;97962.50;;;18.48;85.81
7802;BME280;3945;48.952;9.506;2023-05-23T09:00:56;97974.19;;;18.62;86.51
7802;BME280;3945;48.952;9.506;2023-05-23T09:03:23;97966.97;;;18.77;86.09
7802;BME280;3945;48.952;9.506;2023-05-23T09:05:51;97968.53;;;18.96;85.89
7802;BME280;3945;48.952;9.506;2023-05-23T09:08:19;97966.84;;;19.19;83.90
7802;BME280;3945;48.952;9.506;2023-05-23T09:10:47;97969.91;;;19.45;84.73
7802;BME280;3945;48.952;9.506;2023-05-23T09:13:14;97967.34;;;19.67;82.30
7802;BME280;3945;48.952;9.506;2023-05-23T09:15:54;97980.50;;;19.87;79.96
7802;BME280;3945;48.952;9.506;2023-05-23T09:18:21;97975.28;;;19.91;79.07
7802;BME280;3945;48.952;9.506;2023-05-23T09:20:49;97981.69;;;19.95;78.58
7802;BME280;3945;48.952;9.506;2023-05-23T09:23:16;97978.69;;;19.97;76.67
7802;BME280;3945;48.952;9.506;2023-05-23T09:25:45;97982.97;;;19.98;76.84
7802;BME280;3945;48.952;9.506;2023-05-23T09:28:13;97981.47;;;20.05;74.94
7802;BME280;3945;48.952;9.506;2023-05-23T09:30:39;97979.47;;;20.11;75.97
7802;BME280;3945;48.952;9.506;2023-05-23T09:33:06;97980.69;;;20.18;75.82
7802;BME280;3945;48.952;9.506;2023-05-23T09:35:33;97974.47;;;20.18;75.69
7802;BME280;3945;48.952;9.506;2023-05-23T09:37:59;97985.38;;;20.13;74.08
7802;BME280;3945;48.952;9.506;2023-05-23T09:40:29;97985.28;;;20.04;73.42
7802;BME280;3945;48.952;9.506;2023-05-23T09:42:56;97992.00;;;19.93;73.55
7802;BME280;3945;48.952;9.506;2023-05-23T09:45:29;97995.50;;;19.94;74.01
7802;BME280;3945;48.952;9.506;2023-05-23T09:47:56;97994.69;;;19.93;73.55
7802;BME280;3945;48.952;9.506;2023-05-23T09:50:23;97994.88;;;19.97;72.69
7802;BME280;3945;48.952;9.506;2023-05-23T09:52:49;98000.50;;;20.00;72.60
7802;BME280;3945;48.952;9.506;2023-05-23T09:55:18;97999.41;;;20.01;73.17
7802;BME280;3945;48.952;9.506;2023-05-23T09:57:44;98009.72;;;19.99;73.23
7802;BME280;3945;48.952;9.506;2023-05-23T10:00:15;98001.91;;;19.98;72.55
7802;BME280;3945;48.952;9.506;2023-05-23T10:05:32;97995.09;;;20.14;72.48
7802;BME280;3945;48.952;9.506;2023-05-23T10:08:00;97995.69;;;20.52;73.03
7802;BME280;3945;48.952;9.506;2023-05-23T10:10:28;97996.34;;;21.07;72.55
7802;BME280;3945;48.952;9.506;2023-05-23T10:12:56;98010.28;;;21.36;70.37
7802;BME280;3945;48.952;9.506;2023-05-23T10:15:23;97996.44;;;21.69;69.16
7802;BME280;3945;48.952;9.506;2023-05-23T10:17:52;97994.03;;;21.98;65.89
7802;BME280;3945;48.952;9.506;2023-05-23T10:20:24;97993.34;;;22.24;66.91
7802;BME280;3945;48.952;9.506;2023-05-23T10:22:51;97998.38;;;22.47;66.10
7802;BME280;3945;48.952;9.506;2023-05-23T10:25:19;98004.94;;;22.72;64.99
7802;BME280;3945;48.952;9.506;2023-05-23T10:27:45;98000.03;;;23.00;63.80
7802;BME280;3945;48.952;9.506;2023-05-23T10:30:14;98001.75;;;23.22;64.60
7802;BME280;3945;48.952;9.506;2023-05-23T10:32:40;97999.84;;;23.22;61.02
7802;BME280;3945;48.952;9.506;2023-05-23T10:35:09;98004.19;;;22.98;60.19
7802;BME280;3945;48.952;9.506;2023-05-23T10:37:38;98010.56;;;22.93;63.30
7802;BME280;3945;48.952;9.506;2023-05-23T10:40:10;98012.16;;;22.85;61.93
7802;BME280;3945;48.952;9.506;2023-05-23T10:42:41;98007.53;;;22.86;60.86
7802;BME280;3945;48.952;9.506;2023-05-23T10:45:13;98007.84;;;23.02;62.40
7802;BME280;3945;48.952;9.506;2023-05-23T10:47:40;98015.81;;;23.32;60.23
7802;BME280;3945;48.952;9.506;2023-05-23T10:50:11;98015.16;;;23.61;60.28
7802;BME280;3945;48.952;9.506;2023-05-23T10:52:38;98015.31;;;23.56;57.75
7802;BME280;3945;48.952;9.506;2023-05-23T10:55:10;98019.34;;;23.50;58.04
7802;BME280;3945;48.952;9.506;2023-05-23T10:57:39;98014.53;;;23.56;58.52
7802;BME280;3945;48.952;9.506;2023-05-23T11:00:10;98022.03;;;23.42;57.96
7802;BME280;3945;48.952;9.506;2023-05-23T11:02:37;98015.19;;;23.18;59.18
7802;BME280;3945;48.952;9.506;2023-05-23T11:05:17;98019.97;;;22.78;57.45
7802;BME280;3945;48.952;9.506;2023-05-23T11:07:43;98020.84;;;22.39;58.23
7802;BME280;3945;48.952;9.506;2023-05-23T11:10:10;98029.13;;;22.43;61.09
7802;BME280;3945;48.952;9.506;2023-05-23T11:12:40;98024.34;;;22.48;59.87
7802;BME280;3945;48.952;9.506;2023-05-23T11:17:49;98019.91;;;22.52;59.95
7802;BME280;3945;48.952;9.506;2023-05-23T11:20:16;98036.63;;;22.37;58.21
7802;BME280;3945;48.952;9.506;2023-05-23T11:22:52;98028.66;;;22.49;55.42
7802;BME280;3945;48.952;9.506;2023-05-23T11:25:18;98022.53;;;22.75;55.76
7802;BME280;3945;48.952;9.506;2023-05-23T11:27:47;98033.72;;;22.99;55.69
7802;BME280;3945;48.952;9.506;2023-05-23T11:30:15;98031.63;;;23.22;55.42
7802;BME280;3945;48.952;9.506;2023-05-23T11:32:42;98032.13;;;23.15;52.69
7802;BME280;3945;48.952;9.506;2023-05-23T11:35:14;98019.47;;;23.45;55.63
7802;BME280;3945;48.952;9.506;2023-05-23T11:37:41;98020.88;;;23.77;54.25
7802;BME280;3945;48.952;9.506;2023-05-23T11:40:24;98011.84;;;24.02;55.12
7802;BME280;3945;48.952;9.506;2023-05-23T11:42:52;98018.66;;;24.17;53.01
7802;BME280;3945;48.952;9.506;2023-05-23T11:45:19;98007.16;;;24.11;53.14
7802;BME280;3945;48.952;9.506;2023-05-23T11:47:45;98004.78;;;24.01;52.78
7802;BME280;3945;48.952;9.506;2023-05-23T11:50:11;98007.38;;;23.98;53.53
7802;BME280;3945;48.952;9.506;2023-05-23T11:52:38;97996.59;;;23.72;53.33
7802;BME280;3945;48.952;9.506;2023-05-23T11:55:05;98011.06;;;23.93;55.30
7802;BME280;3945;48.952;9.506;2023-05-23T11:57:32;98004.78;;;24.01;56.06
7802;BME280;3945;48.952;9.506;2023-05-23T12:00:00;98014.28;;;23.87;54.20
7802;BME280;3945;48.952;9.506;2023-05-23T12:02:27;98006.59;;;23.89;53.41
7802;BME280;3945;48.952;9.506;2023-05-23T12:04:54;98009.31;;;23.97;54.26
7802;BME280;3945;48.952;9.506;2023-05-23T12:07:20;98010.38;;;24.05;53.54
7802;BME280;3945;48.952;9.506;2023-05-23T12:09:47;98012.88;;;24.19;53.99
7802;BME280;3945;48.952;9.506;2023-05-23T12:12:13;98003.38;;;23.95;53.94
7802;BME280;3945;48.952;9.506;2023-05-23T12:14:40;98011.44;;;23.83;54.72
7802;BME280;3945;48.952;9.506;2023-05-23T12:17:10;98015.81;;;23.50;56.06
7802;BME280;3945;48.952;9.506;2023-05-23T12:19:36;98012.81;;;23.25;56.57
7802;BME280;3945;48.952;9.506;2023-05-23T12:22:04;98012.31;;;22.89;56.49
7802;BME280;3945;48.952;9.506;2023-05-23T12:24:30;98006.34;;;22.70;57.74
7802;BME280;3945;48.952;9.506;2023-05-23T12:26:57;98013.44;;;22.79;57.06
7802;BME280;3945;48.952;9.506;2023-05-23T12:29:27;98003.53;;;23.09;57.84
7802;BME280;3945;48.952;9.506;2023-05-23T12:31:53;98005.78;;;23.16;57.63
7802;BME280;3945;48.952;9.506;2023-05-23T12:34:21;98004.16;;;23.15;58.18
7802;BME280;3945;48.952;9.506;2023-05-23T12:36:47;98004.97;;;22.89;56.13
7802;BME280;3945;48.952;9.506;2023-05-23T12:39:14;98006.69;;;22.68;57.86
7802;BME280;3945;48.952;9.506;2023-05-23T12:41:41;98001.66;;;22.36;58.00
7802;BME280;3945;48.952;9.506;2023-05-23T12:44:08;97994.47;;;22.23;60.65
7802;BME280;3945;48.952;9.506;2023-05-23T12:46:35;98003.19;;;22.11;60.12
7802;BME280;3945;48.952;9.506;2023-05-23T12:49:02;98007.59;;;21.98;59.89
7802;BME280;3945;48.952;9.506;2023-05-23T12:51:29;98003.41;;;21.92;61.39
7802;BME280;3945;48.952;9.506;2023-05-23T12:53:56;98010.13;;;21.95;61.32
7802;BME280;3945;48.952;9.506;2023-05-23T12:56:22;98009.38;;;22.03;60.78
7802;BME280;3945;48.952;9.506;2023-05-23T12:58:48;97998.41;;;22.08;60.38
7802;BME280;3945;48.952;9.506;2023-05-23T13:01:15;97997.50;;;22.30;61.71
7802;BME280;3945;48.952;9.506;2023-05-23T13:03:41;98000.41;;;22.42;60.34
7802;BME280;3945;48.952;9.506;2023-05-23T13:06:08;97997.22;;;22.40;60.16
7802;BME280;3945;48.952;9.506;2023-05-23T13:08:35;97987.28;;;22.27;58.94
7802;BME280;3945;48.952;9.506;2023-05-23T13:11:02;97986.94;;;22.19;60.61
7802;BME280;3945;48.952;9.506;2023-05-23T13:13:29;97989.41;;;21.99;60.43
7802;BME280;3945;48.952;9.506;2023-05-23T13:15:56;97992.84;;;21.82;61.34
7802;BME280;3945;48.952;9.506;2023-05-23T13:18:23;97988.78;;;21.71;61.31
7802;BME280;3945;48.952;9.506;2023-05-23T13:20:49;97989.91;;;21.70;61.45
7802;BME280;3945;48.952;9.506;2023-05-23T13:23:16;97996.31;;;21.74;63.02
7802;BME280;3945;48.952;9.506;2023-05-23T13:25:44;97997.28;;;21.78;61.25
7802;BME280;3945;48.952;9.506;2023-05-23T13:28:10;97997.81;;;21.89;61.85